sensor_id;sensor_type;location;lat;lon;timestamp;temperature;humidity
19536;HTU21D;9913;51.168;4.124;2023-08-17T00:02:00;18.73;93.85
19536;HTU21D;9913;51.168;4.124;2023-08-17T00:04:29;18.76;93.79
19536;HTU21D;9913;51.168;4.124;2023-08-17T00:06:57;18.78;93.92
19536;HTU21D;9913;51.168;4.124;2023-08-17T00:09:26;18.84;93.73
19536;HTU21D;9913;51.168;4.124;2023-08-17T00:11:55;18.98;93.31
19536;HTU21D;9913;51.168;4.124;2023-08-17T00:14:24;18.96;94.20
19536;HTU21D;9913;51.168;4.124;2023-08-17T00:16:53;18.92;94.07
19536;HTU21D;9913;51.168;4.124;2023-08-17T00:19:23;18.89;93.74
19536;HTU21D;9913;51.168;4.124;2023-08-17T00:21:52;18.83;93.94
19536;HTU21D;9913;51.168;4.124;2023-08-17T00:24:20;18.83;93.72
19536;HTU21D;9913;51.168;4.124;2023-08-17T00:26:50;18.81;94.03
19536;HTU21D;9913;51.168;4.124;2023-08-17T00:29:18;18.69;94.14
19536;HTU21D;9913;51.168;4.124;2023-08-17T00:31:47;18.77;93.99
19536;HTU21D;9913;51.168;4.124;2023-08-17T00:34:16;18.64;94.21
19536;HTU21D;9913;51.168;4.124;2023-08-17T00:36:46;18.73;94.01
19536;HTU21D;9913;51.168;4.124;2023-08-17T00:39:14;18.54;94.05
19536;HTU21D;9913;51.168;4.124;2023-08-17T00:41:43;18.52;93.87
19536;HTU21D;9913;51.168;4.124;2023-08-17T00:44:12;18.46;93.56
19536;HTU21D;9913;51.168;4.124;2023-08-17T00:46:40;18.63;93.24
19536;HTU21D;9913;51.168;4.124;2023-08-17T00:49:10;18.52;93.50
19536;HTU21D;9913;51.168;4.124;2023-08-17T00:51:39;18.56;93.54
19536;HTU21D;9913;51.168;4.124;2023-08-17T00:54:10;18.53;93.33
19536;HTU21D;9913;51.168;4.124;2023-08-17T00:56:39;18.62;93.57
19536;HTU21D;9913;51.168;4.124;2023-08-17T00:59:07;18.50;93.48
19536;HTU21D;9913;51.168;4.124;2023-08-17T01:01:36;18.62;93.37
19536;HTU21D;9913;51.168;4.124;2023-08-17T01:04:05;18.61;93.24
19536;HTU21D;9913;51.168;4.124;2023-08-17T01:06:34;18.63;93.56
19536;HTU21D;9913;51.168;4.124;2023-08-17T01:09:06;18.67;93.64
19536;HTU21D;9913;51.168;4.124;2023-08-17T01:14:30;18.96;93.43
19536;HTU21D;9913;51.168;4.124;2023-08-17T01:17:05;18.87;93.75
19536;HTU21D;9913;51.168;4.124;2023-08-17T01:19:35;18.74;93.91
19536;HTU21D;9913;51.168;4.124;2023-08-17T01:22:05;18.64;93.80
19536;HTU21D;9913;51.168;4.124;2023-08-17T01:24:36;18.77;93.75
19536;HTU21D;9913;51.168;4.124;2023-08-17T01:27:05;18.64;93.58
19536;HTU21D;9913;51.168;4.124;2023-08-17T01:29:33;18.68;93.62
19536;HTU21D;9913;51.168;4.124;2023-08-17T01:32:07;18.63;93.88
19536;HTU21D;9913;51.168;4.124;2023-08-17T01:34:40;18.49;93.98
19536;HTU21D;9913;51.168;4.124;2023-08-17T01:37:18;18.80;93.72
19536;HTU21D;9913;51.168;4.124;2023-08-17T01:39:52;18.57;93.81
19536;HTU21D;9913;51.168;4.124;2023-08-17T01:42:24;18.53;93.78
19536;HTU21D;9913;51.168;4.124;2023-08-17T01:44:54;18.69;93.41
19536;HTU21D;9913;51.168;4.124;2023-08-17T01:47:23;18.63;93.91
19536;HTU21D;9913;51.168;4.124;2023-08-17T01:49:52;18.71;93.89
19536;HTU21D;9913;51.168;4.124;2023-08-17T01:52:27;18.53;93.82
19536;HTU21D;9913;51.168;4.124;2023-08-17T01:54:57;18.55;93.69
19536;HTU21D;9913;51.168;4.124;2023-08-17T01:57:26;18.62;93.96
19536;HTU21D;9913;51.168;4.124;2023-08-17T01:59:55;18.69;93.82
19536;HTU21D;9913;51.168;4.124;2023-08-17T02:02:23;18.65;94.18
19536;HTU21D;9913;51.168;4.124;2023-08-17T02:04:52;18.49;93.94
19536;HTU21D;9913;51.168;4.124;2023-08-17T02:07:21;18.42;94.11
19536;HTU21D;9913;51.168;4.124;2023-08-17T02:09:52;18.50;93.95
19536;HTU21D;9913;51.168;4.124;2023-08-17T02:12:23;18.57;93.72
19536;HTU21D;9913;51.168;4.124;2023-08-17T02:14:52;18.47;94.32
19536;HTU21D;9913;51.168;4.124;2023-08-17T02:17:22;18.41;93.89
19536;HTU21D;9913;51.168;4.124;2023-08-17T02:19:51;18.49;94.10
19536;HTU21D;9913;51.168;4.124;2023-08-17T02:22:20;18.34;94.40
19536;HTU21D;9913;51.168;4.124;2023-08-17T02:24:48;18.40;94.20
19536;HTU21D;9913;51.168;4.124;2023-08-17T02:27:17;18.43;94.10
19536;HTU21D;9913;51.168;4.124;2023-08-17T02:29:47;18.38;94.39
19536;HTU21D;9913;51.168;4.124;2023-08-17T02:32:16;18.44;94.30
19536;HTU21D;9913;51.168;4.124;2023-08-17T02:34:45;18.42;94.30
19536;HTU21D;9913;51.168;4.124;2023-08-17T02:37:13;18.24;94.52
19536;HTU21D;9913;51.168;4.124;2023-08-17T02:39:42;18.26;94.33
19536;HTU21D;9913;51.168;4.124;2023-08-17T02:42:10;18.17;94.34
19536;HTU21D;9913;51.168;4.124;2023-08-17T02:44:39;18.14;94.46
19536;HTU21D;9913;51.168;4.124;2023-08-17T02:47:11;18.13;94.59
19536;HTU21D;9913;51.168;4.124;2023-08-17T02:49:39;18.23;94.20
19536;HTU21D;9913;51.168;4.124;2023-08-17T02:52:09;18.11;94.52
19536;HTU21D;9913;51.168;4.124;2023-08-17T02:54:38;18.11;94.36
19536;HTU21D;9913;51.168;4.124;2023-08-17T02:57:06;18.09;94.32
19536;HTU21D;9913;51.168;4.124;2023-08-17T02:59:35;18.13;94.20
19536;HTU21D;9913;51.168;4.124;2023-08-17T03:02:04;18.05;94.52
19536;HTU21D;9913;51.168;4.124;2023-08-17T03:04:36;18.08;94.57
19536;HTU21D;9913;51.168;4.124;2023-08-17T03:07:04;18.06;94.62
19536;HTU21D;9913;51.168;4.124;2023-08-17T03:09:33;18.23;94.56
19536;HTU21D;9913;51.168;4.124;2023-08-17T03:12:02;18.34;94.84
19536;HTU21D;9913;51.168;4.124;2023-08-17T03:14:30;18.30;94.53
19536;HTU21D;9913;51.168;4.124;2023-08-17T03:16:59;18.30;94.75
19536;HTU21D;9913;51.168;4.124;2023-08-17T03:19:28;17.99;94.69
19536;HTU21D;9913;51.168;4.124;2023-08-17T03:21:58;17.93;94.73
19536;HTU21D;9913;51.168;4.124;2023-08-17T03:24:26;17.94;94.44
19536;HTU21D;9913;51.168;4.124;2023-08-17T03:26:56;17.95;94.46
19536;HTU21D;9913;51.168;4.124;2023-08-17T03:29:25;17.82;94.42
19536;HTU21D;9913;51.168;4.124;2023-08-17T03:31:55;17.88;94.26
19536;HTU21D;9913;51.168;4.124;2023-08-17T03:34:24;17.85;93.98
19536;HTU21D;9913;51.168;4.124;2023-08-17T03:36:52;18.04;93.95
19536;HTU21D;9913;51.168;4.124;2023-08-17T03:39:23;18.06;94.11
19536;HTU21D;9913;51.168;4.124;2023-08-17T03:41:51;18.13;94.31
19536;HTU21D;9913;51.168;4.124;2023-08-17T03:44:20;17.98;93.91
19536;HTU21D;9913;51.168;4.124;2023-08-17T03:46:49;17.96;94.00
19536;HTU21D;9913;51.168;4.124;2023-08-17T03:49:17;18.05;93.72
19536;HTU21D;9913;51.168;4.124;2023-08-17T03:51:46;17.88;93.85
19536;HTU21D;9913;51.168;4.124;2023-08-17T03:54:17;17.84;93.93
19536;HTU21D;9913;51.168;4.124;2023-08-17T03:56:48;17.90;93.75
19536;HTU21D;9913;51.168;4.124;2023-08-17T03:59:16;17.91;93.49
19536;HTU21D;9913;51.168;4.124;2023-08-17T04:01:45;17.91;93.65
19536;HTU21D;9913;51.168;4.124;2023-08-17T04:04:14;17.74;93.62
19536;HTU21D;9913;51.168;4.124;2023-08-17T04:06:43;17.64;93.86
19536;HTU21D;9913;51.168;4.124;2023-08-17T04:09:11;17.63;94.05
19536;HTU21D;9913;51.168;4.124;2023-08-17T04:11:40;17.62;93.87
19536;HTU21D;9913;51.168;4.124;2023-08-17T04:14:11;17.61;93.96
19536;HTU21D;9913;51.168;4.124;2023-08-17T04:16:39;17.76;93.98
19536;HTU21D;9913;51.168;4.124;2023-08-17T04:19:08;17.73;93.49
19536;HTU21D;9913;51.168;4.124;2023-08-17T04:21:37;17.90;93.30
19536;HTU21D;9913;51.168;4.124;2023-08-17T04:24:06;17.80;93.23
19536;HTU21D;9913;51.168;4.124;2023-08-17T04:26:35;17.82;93.11
19536;HTU21D;9913;51.168;4.124;2023-08-17T04:29:04;17.85;93.23
19536;HTU21D;9913;51.168;4.124;2023-08-17T04:31:34;17.69;93.03
19536;HTU21D;9913;51.168;4.124;2023-08-17T04:34:05;17.79;92.88
19536;HTU21D;9913;51.168;4.124;2023-08-17T04:36:33;17.84;92.63
19536;HTU21D;9913;51.168;4.124;2023-08-17T04:39:04;17.85;93.34
19536;HTU21D;9913;51.168;4.124;2023-08-17T04:41:33;17.85;92.59
19536;HTU21D;9913;51.168;4.124;2023-08-17T04:44:05;17.77;93.27
19536;HTU21D;9913;51.168;4.124;2023-08-17T04:46:36;17.79;92.76
19536;HTU21D;9913;51.168;4.124;2023-08-17T04:49:05;17.81;93.25
19536;HTU21D;9913;51.168;4.124;2023-08-17T04:51:33;17.93;92.77
19536;HTU21D;9913;51.168;4.124;2023-08-17T04:54:02;17.85;92.86
19536;HTU21D;9913;51.168;4.124;2023-08-17T04:56:31;17.75;93.08
19536;HTU21D;9913;51.168;4.124;2023-08-17T04:58:59;17.84;92.95
19536;HTU21D;9913;51.168;4.124;2023-08-17T05:01:28;17.80;92.95
19536;HTU21D;9913;51.168;4.124;2023-08-17T05:03:59;17.90;93.24
19536;HTU21D;9913;51.168;4.124;2023-08-17T05:06:28;17.85;93.14
19536;HTU21D;9913;51.168;4.124;2023-08-17T05:08:56;17.87;93.33
19536;HTU21D;9913;51.168;4.124;2023-08-17T05:11:25;17.94;93.17
19536;HTU21D;9913;51.168;4.124;2023-08-17T05:13:54;17.85;93.11
19536;HTU21D;9913;51.168;4.124;2023-08-17T05:16:24;17.67;93.10
19536;HTU21D;9913;51.168;4.124;2023-08-17T05:18:52;17.79;92.88
19536;HTU21D;9913;51.168;4.124;2023-08-17T05:21:22;17.64;93.35
19536;HTU21D;9913;51.168;4.124;2023-08-17T05:23:51;17.67;92.80
19536;HTU21D;9913;51.168;4.124;2023-08-17T05:26:20;17.77;93.18
19536;HTU21D;9913;51.168;4.124;2023-08-17T05:28:48;17.73;93.17
19536;HTU21D;9913;51.168;4.124;2023-08-17T05:31:17;17.64;93.14
19536;HTU21D;9913;51.168;4.124;2023-08-17T05:33:48;17.70;93.07
19536;HTU21D;9913;51.168;4.124;2023-08-17T05:36:17;17.78;93.32
19536;HTU21D;9913;51.168;4.124;2023-08-17T05:38:48;17.64;93.20
19536;HTU21D;9913;51.168;4.124;2023-08-17T05:41:16;17.62;93.38
19536;HTU21D;9913;51.168;4.124;2023-08-17T05:43:45;17.76;93.36
19536;HTU21D;9913;51.168;4.124;2023-08-17T05:46:13;17.81;93.33
19536;HTU21D;9913;51.168;4.124;2023-08-17T05:48:42;17.89;92.96
19536;HTU21D;9913;51.168;4.124;2023-08-17T05:51:11;17.98;93.42
19536;HTU21D;9913;51.168;4.124;2023-08-17T05:53:39;18.11;93.61
19536;HTU21D;9913;51.168;4.124;2023-08-17T05:56:10;17.94;92.95
19536;HTU21D;9913;51.168;4.124;2023-08-17T05:58:38;17.90;92.74
19536;HTU21D;9913;51.168;4.124;2023-08-17T06:01:09;17.75;93.25
19536;HTU21D;9913;51.168;4.124;2023-08-17T06:03:38;17.91;93.27
19536;HTU21D;9913;51.168;4.124;2023-08-17T06:06:07;17.90;93.63
19536;HTU21D;9913;51.168;4.124;2023-08-17T06:08:35;18.19;93.10
19536;HTU21D;9913;51.168;4.124;2023-08-17T06:11:04;18.02;93.59
19536;HTU21D;9913;51.168;4.124;2023-08-17T06:13:34;18.05;93.62
19536;HTU21D;9913;51.168;4.124;2023-08-17T06:16:03;17.96;93.24
19536;HTU21D;9913;51.168;4.124;2023-08-17T06:18:32;18.08;93.40
19536;HTU21D;9913;51.168;4.124;2023-08-17T06:21:01;18.07;93.32
19536;HTU21D;9913;51.168;4.124;2023-08-17T06:23:29;17.96;93.19
19536;HTU21D;9913;51.168;4.124;2023-08-17T06:25:58;17.98;93.57
19536;HTU21D;9913;51.168;4.124;2023-08-17T06:28:27;17.84;93.72
19536;HTU21D;9913;51.168;4.124;2023-08-17T06:30:57;18.03;93.98
19536;HTU21D;9913;51.168;4.124;2023-08-17T06:33:25;18.19;93.72
19536;HTU21D;9913;51.168;4.124;2023-08-17T06:35:54;18.14;94.11
19536;HTU21D;9913;51.168;4.124;2023-08-17T06:38:22;18.13;93.65
19536;HTU21D;9913;51.168;4.124;2023-08-17T06:40:51;18.26;93.77
19536;HTU21D;9913;51.168;4.124;2023-08-17T06:43:20;18.40;93.60
19536;HTU21D;9913;51.168;4.124;2023-08-17T06:45:49;18.10;93.78
19536;HTU21D;9913;51.168;4.124;2023-08-17T06:48:19;18.21;93.58
19536;HTU21D;9913;51.168;4.124;2023-08-17T06:50:47;18.23;93.81
19536;HTU21D;9913;51.168;4.124;2023-08-17T06:53:16;18.25;93.42
19536;HTU21D;9913;51.168;4.124;2023-08-17T06:55:45;18.30;93.68
19536;HTU21D;9913;51.168;4.124;2023-08-17T06:58:13;18.27;93.12
19536;HTU21D;9913;51.168;4.124;2023-08-17T07:00:42;18.15;93.37
19536;HTU21D;9913;51.168;4.124;2023-08-17T07:03:11;18.27;93.19
19536;HTU21D;9913;51.168;4.124;2023-08-17T07:05:41;18.26;93.33
19536;HTU21D;9913;51.168;4.124;2023-08-17T07:08:10;18.47;93.58
19536;HTU21D;9913;51.168;4.124;2023-08-17T07:10:40;18.44;93.26
19536;HTU21D;9913;51.168;4.124;2023-08-17T07:13:08;18.51;93.34
19536;HTU21D;9913;51.168;4.124;2023-08-17T07:15:37;18.64;93.14
19536;HTU21D;9913;51.168;4.124;2023-08-17T07:18:06;18.87;93.05
19536;HTU21D;9913;51.168;4.124;2023-08-17T07:20:34;19.07;93.71
19536;HTU21D;9913;51.168;4.124;2023-08-17T07:23:04;18.82;93.36
19536;HTU21D;9913;51.168;4.124;2023-08-17T07:25:33;18.78;94.10
19536;HTU21D;9913;51.168;4.124;2023-08-17T07:28:02;18.64;94.01
19536;HTU21D;9913;51.168;4.124;2023-08-17T07:30:31;18.78;93.74
19536;HTU21D;9913;51.168;4.124;2023-08-17T07:32:59;18.78;93.91
19536;HTU21D;9913;51.168;4.124;2023-08-17T07:35:28;18.84;93.76
19536;HTU21D;9913;51.168;4.124;2023-08-17T07:37:57;18.77;93.37
19536;HTU21D;9913;51.168;4.124;2023-08-17T07:40:37;18.84;94.29
19536;HTU21D;9913;51.168;4.124;2023-08-17T07:43:06;19.03;93.27
19536;HTU21D;9913;51.168;4.124;2023-08-17T07:45:35;19.07;93.65
19536;HTU21D;9913;51.168;4.124;2023-08-17T07:48:04;19.39;92.97
19536;HTU21D;9913;51.168;4.124;2023-08-17T07:50:33;19.23;93.24
19536;HTU21D;9913;51.168;4.124;2023-08-17T07:53:04;19.12;93.90
19536;HTU21D;9913;51.168;4.124;2023-08-17T07:55:33;19.05;93.53
19536;HTU21D;9913;51.168;4.124;2023-08-17T07:58:08;19.00;93.27
19536;HTU21D;9913;51.168;4.124;2023-08-17T08:00:36;18.98;93.95
19536;HTU21D;9913;51.168;4.124;2023-08-17T08:03:05;19.05;94.32
19536;HTU21D;9913;51.168;4.124;2023-08-17T08:05:34;18.92;93.53
19536;HTU21D;9913;51.168;4.124;2023-08-17T08:08:03;19.05;93.69
19536;HTU21D;9913;51.168;4.124;2023-08-17T08:10:32;19.17;94.14
19536;HTU21D;9913;51.168;4.124;2023-08-17T08:13:00;19.28;94.23
19536;HTU21D;9913;51.168;4.124;2023-08-17T08:15:32;19.56;93.46
19536;HTU21D;9913;51.168;4.124;2023-08-17T08:18:01;19.41;93.56
19536;HTU21D;9913;51.168;4.124;2023-08-17T08:20:30;19.48;93.66
19536;HTU21D;9913;51.168;4.124;2023-08-17T08:22:58;19.68;93.59
19536;HTU21D;9913;51.168;4.124;2023-08-17T08:25:27;19.75;94.27
19536;HTU21D;9913;51.168;4.124;2023-08-17T08:27:55;20.03;93.76
19536;HTU21D;9913;51.168;4.124;2023-08-17T08:30:24;19.99;93.96
19536;HTU21D;9913;51.168;4.124;2023-08-17T08:32:54;19.86;94.02
19536;HTU21D;9913;51.168;4.124;2023-08-17T08:35:28;19.59;93.27
19536;HTU21D;9913;51.168;4.124;2023-08-17T08:37:58;19.56;93.97
19536;HTU21D;9913;51.168;4.124;2023-08-17T08:40:29;19.63;93.80
19536;HTU21D;9913;51.168;4.124;2023-08-17T08:42:58;19.84;94.06
19536;HTU21D;9913;51.168;4.124;2023-08-17T08:45:28;19.84;94.04
19536;HTU21D;9913;51.168;4.124;2023-08-17T08:48:00;20.10;94.17
19536;HTU21D;9913;51.168;4.124;2023-08-17T08:50:31;19.85;94.01
19536;HTU21D;9913;51.168;4.124;2023-08-17T08:53:03;19.94;94.45
19536;HTU21D;9913;51.168;4.124;2023-08-17T08:55:34;20.16;94.84
19536;HTU21D;9913;51.168;4.124;2023-08-17T08:58:11;20.56;93.77
19536;HTU21D;9913;51.168;4.124;2023-08-17T09:00:41;20.47;93.62
19536;HTU21D;9913;51.168;4.124;2023-08-17T09:03:15;20.53;93.86
19536;HTU21D;9913;51.168;4.124;2023-08-17T09:05:48;20.53;93.71
19536;HTU21D;9913;51.168;4.124;2023-08-17T09:08:22;20.49;94.01
19536;HTU21D;9913;51.168;4.124;2023-08-17T09:10:50;20.53;94.65
19536;HTU21D;9913;51.168;4.124;2023-08-17T09:13:19;20.59;94.91
19536;HTU21D;9913;51.168;4.124;2023-08-17T09:15:48;20.66;94.46
19536;HTU21D;9913;51.168;4.124;2023-08-17T09:18:18;20.59;93.75
19536;HTU21D;9913;51.168;4.124;2023-08-17T09:20:48;20.28;94.74
19536;HTU21D;9913;51.168;4.124;2023-08-17T09:23:21;20.32;94.85
19536;HTU21D;9913;51.168;4.124;2023-08-17T09:25:53;20.11;93.99
19536;HTU21D;9913;51.168;4.124;2023-08-17T09:28:25;19.97;94.77
19536;HTU21D;9913;51.168;4.124;2023-08-17T09:30:57;20.13;94.92
19536;HTU21D;9913;51.168;4.124;2023-08-17T09:33:29;20.05;94.29
19536;HTU21D;9913;51.168;4.124;2023-08-17T09:35:59;20.33;93.98
19536;HTU21D;9913;51.168;4.124;2023-08-17T09:38:28;20.45;94.14
19536;HTU21D;9913;51.168;4.124;2023-08-17T09:40:57;20.33;93.77
19536;HTU21D;9913;51.168;4.124;2023-08-17T09:43:26;20.28;93.82
19536;HTU21D;9913;51.168;4.124;2023-08-17T09:45:58;20.55;93.95
19536;HTU21D;9913;51.168;4.124;2023-08-17T09:48:30;20.62;94.11
19536;HTU21D;9913;51.168;4.124;2023-08-17T09:51:00;20.71;94.29
19536;HTU21D;9913;51.168;4.124;2023-08-17T09:53:33;20.73;93.78
19536;HTU21D;9913;51.168;4.124;2023-08-17T09:56:05;20.99;95.70
19536;HTU21D;9913;51.168;4.124;2023-08-17T09:58:34;21.05;94.38
19536;HTU21D;9913;51.168;4.124;2023-08-17T10:01:04;21.30;95.39
19536;HTU21D;9913;51.168;4.124;2023-08-17T10:03:35;21.30;95.49
19536;HTU21D;9913;51.168;4.124;2023-08-17T10:06:10;21.46;94.78
19536;HTU21D;9913;51.168;4.124;2023-08-17T10:08:43;21.30;95.33
19536;HTU21D;9913;51.168;4.124;2023-08-17T10:11:12;21.43;95.09
19536;HTU21D;9913;51.168;4.124;2023-08-17T10:13:46;21.39;94.93
19536;HTU21D;9913;51.168;4.124;2023-08-17T10:16:22;21.07;95.63
19536;HTU21D;9913;51.168;4.124;2023-08-17T10:19:08;21.09;95.20
19536;HTU21D;9913;51.168;4.124;2023-08-17T10:21:46;21.20;94.61
19536;HTU21D;9913;51.168;4.124;2023-08-17T10:24:20;20.90;95.26
19536;HTU21D;9913;51.168;4.124;2023-08-17T10:26:57;20.96;94.15
19536;HTU21D;9913;51.168;4.124;2023-08-17T10:29:26;20.94;94.79
19536;HTU21D;9913;51.168;4.124;2023-08-17T10:31:55;21.30;93.53
19536;HTU21D;9913;51.168;4.124;2023-08-17T10:34:29;21.45;96.17
19536;HTU21D;9913;51.168;4.124;2023-08-17T10:36:59;21.65;93.80
19536;HTU21D;9913;51.168;4.124;2023-08-17T10:39:29;21.58;93.90
19536;HTU21D;9913;51.168;4.124;2023-08-17T10:41:58;21.57;96.84
19536;HTU21D;9913;51.168;4.124;2023-08-17T10:44:46;21.06;94.65
19536;HTU21D;9913;51.168;4.124;2023-08-17T10:47:20;20.76;95.52
19536;HTU21D;9913;51.168;4.124;2023-08-17T10:49:55;20.95;94.79
19536;HTU21D;9913;51.168;4.124;2023-08-17T10:52:26;20.49;94.39
19536;HTU21D;9913;51.168;4.124;2023-08-17T10:55:03;20.57;94.59
19536;HTU21D;9913;51.168;4.124;2023-08-17T10:57:37;20.66;94.72
19536;HTU21D;9913;51.168;4.124;2023-08-17T11:00:17;20.59;94.29
19536;HTU21D;9913;51.168;4.124;2023-08-17T11:02:53;20.73;94.57
19536;HTU21D;9913;51.168;4.124;2023-08-17T11:05:37;20.99;94.71
19536;HTU21D;9913;51.168;4.124;2023-08-17T11:08:07;21.18;94.76
19536;HTU21D;9913;51.168;4.124;2023-08-17T11:10:37;21.32;96.05
19536;HTU21D;9913;51.168;4.124;2023-08-17T11:13:06;21.63;95.21
19536;HTU21D;9913;51.168;4.124;2023-08-17T11:15:36;21.58;96.23
19536;HTU21D;9913;51.168;4.124;2023-08-17T11:18:06;21.42;94.90
19536;HTU21D;9913;51.168;4.124;2023-08-17T11:20:39;21.62;95.81
19536;HTU21D;9913;51.168;4.124;2023-08-17T11:23:09;21.50;95.00
19536;HTU21D;9913;51.168;4.124;2023-08-17T11:25:38;21.78;95.19
19536;HTU21D;9913;51.168;4.124;2023-08-17T11:28:08;21.64;96.21
19536;HTU21D;9913;51.168;4.124;2023-08-17T11:30:37;21.72;95.80
19536;HTU21D;9913;51.168;4.124;2023-08-17T11:33:09;21.96;96.35
19536;HTU21D;9913;51.168;4.124;2023-08-17T11:35:40;21.65;95.71
19536;HTU21D;9913;51.168;4.124;2023-08-17T11:38:08;21.44;95.30
19536;HTU21D;9913;51.168;4.124;2023-08-17T11:40:37;21.36;95.48
19536;HTU21D;9913;51.168;4.124;2023-08-17T11:43:06;21.68;96.06
19536;HTU21D;9913;51.168;4.124;2023-08-17T11:45:39;21.73;95.51
19536;HTU21D;9913;51.168;4.124;2023-08-17T11:48:13;21.70;95.49
19536;HTU21D;9913;51.168;4.124;2023-08-17T11:50:45;21.43;96.35
19536;HTU21D;9913;51.168;4.124;2023-08-17T11:53:20;21.19;95.48
19536;HTU21D;9913;51.168;4.124;2023-08-17T11:55:49;20.95;95.32
19536;HTU21D;9913;51.168;4.124;2023-08-17T11:58:36;21.15;95.36
19536;HTU21D;9913;51.168;4.124;2023-08-17T12:01:09;21.03;95.30
19536;HTU21D;9913;51.168;4.124;2023-08-17T12:03:39;21.00;94.52
19536;HTU21D;9913;51.168;4.124;2023-08-17T12:06:15;21.03;95.46
19536;HTU21D;9913;51.168;4.124;2023-08-17T12:08:46;20.93;94.78
19536;HTU21D;9913;51.168;4.124;2023-08-17T12:11:16;20.99;95.13
19536;HTU21D;9913;51.168;4.124;2023-08-17T12:13:49;20.93;94.38
19536;HTU21D;9913;51.168;4.124;2023-08-17T12:16:19;20.95;94.83
19536;HTU21D;9913;51.168;4.124;2023-08-17T12:18:49;21.28;94.97
19536;HTU21D;9913;51.168;4.124;2023-08-17T12:21:22;21.14;94.75
19536;HTU21D;9913;51.168;4.124;2023-08-17T12:23:51;21.02;94.71
19536;HTU21D;9913;51.168;4.124;2023-08-17T12:26:20;20.93;94.94
19536;HTU21D;9913;51.168;4.124;2023-08-17T12:28:49;21.23;95.84
19536;HTU21D;9913;51.168;4.124;2023-08-17T12:31:21;21.27;94.85
19536;HTU21D;9913;51.168;4.124;2023-08-17T12:33:51;21.33;94.94
19536;HTU21D;9913;51.168;4.124;2023-08-17T12:36:21;21.16;94.52
19536;HTU21D;9913;51.168;4.124;2023-08-17T12:38:56;20.94;94.64
19536;HTU21D;9913;51.168;4.124;2023-08-17T12:41:24;20.91;94.71
19536;HTU21D;9913;51.168;4.124;2023-08-17T12:43:53;20.99;94.46
19536;HTU21D;9913;51.168;4.124;2023-08-17T12:46:22;21.24;95.55
19536;HTU21D;9913;51.168;4.124;2023-08-17T12:48:50;21.19;94.96
19536;HTU21D;9913;51.168;4.124;2023-08-17T12:51:19;21.28;94.91
19536;HTU21D;9913;51.168;4.124;2023-08-17T12:53:49;21.15;95.09
19536;HTU21D;9913;51.168;4.124;2023-08-17T12:56:18;21.36;95.20
19536;HTU21D;9913;51.168;4.124;2023-08-17T12:58:49;21.51;95.30
19536;HTU21D;9913;51.168;4.124;2023-08-17T13:01:18;21.57;96.01
19536;HTU21D;9913;51.168;4.124;2023-08-17T13:03:46;21.35;95.15
19536;HTU21D;9913;51.168;4.124;2023-08-17T13:06:15;21.33;94.00
19536;HTU21D;9913;51.168;4.124;2023-08-17T13:08:44;21.30;95.65
19536;HTU21D;9913;51.168;4.124;2023-08-17T13:11:14;21.42;95.49
19536;HTU21D;9913;51.168;4.124;2023-08-17T13:13:42;21.36;94.07
19536;HTU21D;9913;51.168;4.124;2023-08-17T13:16:11;21.50;95.49
19536;HTU21D;9913;51.168;4.124;2023-08-17T13:18:40;21.50;95.31
19536;HTU21D;9913;51.168;4.124;2023-08-17T13:21:08;21.62;95.32
19536;HTU21D;9913;51.168;4.124;2023-08-17T13:23:39;21.57;95.24
19536;HTU21D;9913;51.168;4.124;2023-08-17T13:26:07;21.47;94.82
19536;HTU21D;9913;51.168;4.124;2023-08-17T13:28:38;21.44;95.11
19536;HTU21D;9913;51.168;4.124;2023-08-17T13:31:06;21.20;95.30
19536;HTU21D;9913;51.168;4.124;2023-08-17T13:33:53;21.01;95.65
19536;HTU21D;9913;51.168;4.124;2023-08-17T13:36:22;20.98;95.15
19536;HTU21D;9913;51.168;4.124;2023-08-17T13:38:51;21.03;95.15
19536;HTU21D;9913;51.168;4.124;2023-08-17T13:41:19;20.94;95.24
19536;HTU21D;9913;51.168;4.124;2023-08-17T13:43:50;21.03;94.46
19536;HTU21D;9913;51.168;4.124;2023-08-17T13:46:22;21.11;94.65
19536;HTU21D;9913;51.168;4.124;2023-08-17T13:48:51;20.92;94.11
19536;HTU21D;9913;51.168;4.124;2023-08-17T13:51:21;20.93;94.49
19536;HTU21D;9913;51.168;4.124;2023-08-17T13:53:49;20.84;94.22
19536;HTU21D;9913;51.168;4.124;2023-08-17T13:56:20;21.07;94.92
19536;HTU21D;9913;51.168;4.124;2023-08-17T13:58:50;21.28;94.62
19536;HTU21D;9913;51.168;4.124;2023-08-17T14:01:19;21.44;95.13
19536;HTU21D;9913;51.168;4.124;2023-08-17T14:03:48;21.81;93.73
19536;HTU21D;9913;51.168;4.124;2023-08-17T14:06:19;21.95;95.33
19536;HTU21D;9913;51.168;4.124;2023-08-17T14:08:53;22.04;94.76
19536;HTU21D;9913;51.168;4.124;2023-08-17T14:11:28;22.31;96.52
19536;HTU21D;9913;51.168;4.124;2023-08-17T14:13:58;22.37;97.03
19536;HTU21D;9913;51.168;4.124;2023-08-17T14:16:27;22.27;96.23
19536;HTU21D;9913;51.168;4.124;2023-08-17T14:18:55;22.43;95.90
19536;HTU21D;9913;51.168;4.124;2023-08-17T14:21:24;22.38;96.04
19536;HTU21D;9913;51.168;4.124;2023-08-17T14:23:53;22.12;98.06
19536;HTU21D;9913;51.168;4.124;2023-08-17T14:26:21;22.22;96.19
19536;HTU21D;9913;51.168;4.124;2023-08-17T14:28:50;22.11;96.36
19536;HTU21D;9913;51.168;4.124;2023-08-17T14:31:20;21.95;95.85
19536;HTU21D;9913;51.168;4.124;2023-08-17T14:33:49;21.91;96.13
19536;HTU21D;9913;51.168;4.124;2023-08-17T14:36:18;22.03;96.30
19536;HTU21D;9913;51.168;4.124;2023-08-17T14:38:47;21.92;95.86
19536;HTU21D;9913;51.168;4.124;2023-08-17T14:41:15;21.99;96.03
19536;HTU21D;9913;51.168;4.124;2023-08-17T14:43:44;21.72;95.67
19536;HTU21D;9913;51.168;4.124;2023-08-17T14:46:13;21.79;95.22
19536;HTU21D;9913;51.168;4.124;2023-08-17T14:48:43;21.53;95.86
19536;HTU21D;9913;51.168;4.124;2023-08-17T14:51:12;21.77;95.52
19536;HTU21D;9913;51.168;4.124;2023-08-17T14:53:41;21.69;95.26
19536;HTU21D;9913;51.168;4.124;2023-08-17T14:56:09;21.77;96.03
19536;HTU21D;9913;51.168;4.124;2023-08-17T14:58:39;21.90;95.96
19536;HTU21D;9913;51.168;4.124;2023-08-17T15:01:08;21.79;95.55
19536;HTU21D;9913;51.168;4.124;2023-08-17T15:03:37;21.54;95.71
19536;HTU21D;9913;51.168;4.124;2023-08-17T15:06:08;21.81;95.62
19536;HTU21D;9913;51.168;4.124;2023-08-17T15:08:57;21.73;95.75
19536;HTU21D;9913;51.168;4.124;2023-08-17T15:11:26;22.11;96.49
19536;HTU21D;9913;51.168;4.124;2023-08-17T15:13:55;22.17;96.26
19536;HTU21D;9913;51.168;4.124;2023-08-17T15:16:23;22.19;96.02
19536;HTU21D;9913;51.168;4.124;2023-08-17T15:18:55;22.84;95.66
19536;HTU21D;9913;51.168;4.124;2023-08-17T15:21:25;22.40;96.96
19536;HTU21D;9913;51.168;4.124;2023-08-17T15:23:54;22.73;97.67
19536;HTU21D;9913;51.168;4.124;2023-08-17T15:26:23;22.76;95.60
19536;HTU21D;9913;51.168;4.124;2023-08-17T15:28:51;22.12;95.79
19536;HTU21D;9913;51.168;4.124;2023-08-17T15:31:20;22.05;96.41
19536;HTU21D;9913;51.168;4.124;2023-08-17T15:33:49;22.04;96.23
19536;HTU21D;9913;51.168;4.124;2023-08-17T15:36:18;22.03;96.78
19536;HTU21D;9913;51.168;4.124;2023-08-17T15:38:51;21.74;95.47
19536;HTU21D;9913;51.168;4.124;2023-08-17T15:41:19;21.78;95.61
19536;HTU21D;9913;51.168;4.124;2023-08-17T15:43:51;21.52;95.12
19536;HTU21D;9913;51.168;4.124;2023-08-17T15:46:20;21.69;95.59
19536;HTU21D;9913;51.168;4.124;2023-08-17T15:48:48;21.97;95.49
19536;HTU21D;9913;51.168;4.124;2023-08-17T15:51:17;22.19;95.57